Time;durP1;ratioP1;P1;durP2;ratioP2;P2;SDS_P1;SDS_P2;PMS_P1;PMS_P2;Temp;Humidity;BMP_temperature;BMP_pressure;BME280_temperature;BME280_humidity;BME280_pressure;Samples;Min_cycle;Max_cycle;Signal;HPM_P1;HPM_P2
2021/08/03 00:01:32;;;;;;;2.30;1.90;;;12.00;99.90;;;;;;5052616;28;20228;-67
2021/08/03 00:04:05;;;;;;;1.63;1.60;;;12.00;99.90;;;;;;5052628;28;20209;-67
2021/08/03 00:06:34;;;;;;;3.00;2.70;;;11.90;99.90;;;;;;5053119;28;20480;-68
2021/08/03 00:09:01;;;;;;;1.93;1.83;;;11.80;99.90;;;;;;5052559;28;20437;-66
2021/08/03 00:11:27;;;;;;;2.10;1.80;;;11.70;99.90;;;;;;5052591;28;20799;-68
2021/08/03 00:13:53;;;;;;;1.73;1.63;;;11.70;99.90;;;;;;5054975;28;20202;-66
2021/08/03 00:16:20;;;;;;;2.38;1.90;;;11.70;99.90;;;;;;5056414;28;20459;-66
2021/08/03 00:18:45;;;;;;;2.53;2.33;;;11.70;99.90;;;;;;5056342;28;20170;-67
2021/08/03 00:21:12;;;;;;;1.53;1.43;;;11.70;99.90;;;;;;5056133;28;20224;-67
2021/08/03 00:23:41;;;;;;;2.60;2.35;;;11.70;99.90;;;;;;5056107;28;20187;-67
2021/08/03 00:26:10;;;;;;;3.30;2.00;;;11.60;99.90;;;;;;5056117;28;20174;-67
2021/08/03 00:28:36;;;;;;;2.08;1.88;;;11.50;99.90;;;;;;5055983;28;20545;-67
2021/08/03 00:31:02;;;;;;;2.03;1.80;;;11.60;99.90;;;;;;5055920;28;20190;-67
2021/08/03 00:33:28;;;;;;;2.60;2.40;;;11.60;99.90;;;;;;5055644;28;20190;-67
2021/08/03 00:35:54;;;;;;;1.73;1.63;;;11.60;99.90;;;;;;5056143;28;20208;-65
2021/08/03 00:38:19;;;;;;;2.70;1.67;;;11.60;99.90;;;;;;5055985;28;20171;-68
2021/08/03 00:40:57;;;;;;;1.87;1.77;;;11.60;99.90;;;;;;5055808;28;20194;-65
2021/08/03 00:43:23;;;;;;;2.05;1.83;;;11.60;99.90;;;;;;5055752;28;20220;-68
2021/08/03 00:45:49;;;;;;;1.80;1.70;;;11.60;99.90;;;;;;5054340;28;20585;-66
2021/08/03 00:48:14;;;;;;;2.40;1.93;;;11.60;99.90;;;;;;5056066;28;20220;-68
2021/08/03 00:50:41;;;;;;;1.60;1.50;;;11.60;99.90;;;;;;5055549;28;20269;-68
2021/08/03 00:53:07;;;;;;;2.53;2.33;;;11.60;99.90;;;;;;5055815;28;20865;-67
2021/08/03 00:55:36;;;;;;;3.43;2.40;;;11.50;99.90;;;;;;5055521;28;20304;-68
2021/08/03 00:58:02;;;;;;;2.55;2.30;;;11.60;99.90;;;;;;5054411;28;20166;-67
2021/08/03 01:00:28;;;;;;;2.50;2.30;;;11.60;99.90;;;;;;5055423;28;20198;-67
2021/08/03 01:02:54;;;;;;;1.53;1.43;;;11.60;99.90;;;;;;5055477;28;20635;-67
2021/08/03 01:05:20;;;;;;;3.23;1.83;;;11.60;99.90;;;;;;5055189;28;20177;-68
2021/08/03 01:08:11;;;;;;;1.95;1.73;;;11.60;99.90;;;;;;5055236;28;20405;-67
2021/08/03 01:10:53;;;;;;;2.47;2.37;;;11.50;99.90;;;;;;5055357;28;20198;-68
2021/08/03 01:13:40;;;;;;;3.83;2.15;;;11.40;99.90;;;;;;5055180;28;20521;-68
2021/08/03 01:16:13;;;;;;;3.90;2.42;;;11.40;99.90;;;;;;5055274;28;20166;-68
2021/08/03 01:18:49;;;;;;;1.90;1.77;;;11.30;99.90;;;;;;5055259;28;20312;-68
2021/08/03 01:21:28;;;;;;;2.30;1.90;;;11.30;99.90;;;;;;5055009;28;20713;-66
2021/08/03 01:24:00;;;;;;;13.55;2.20;;;11.40;99.90;;;;;;5054938;28;20178;-68
2021/08/03 01:26:37;;;;;;;2.85;2.15;;;11.40;99.90;;;;;;5054878;28;20185;-68
2021/08/03 01:29:06;;;;;;;3.83;1.95;;;11.40;99.90;;;;;;5055121;28;20567;-66
2021/08/03 01:31:34;;;;;;;2.92;1.80;;;11.40;99.90;;;;;;5054746;28;20198;-67
2021/08/03 01:34:13;;;;;;;2.00;1.90;;;11.40;99.90;;;;;;5053443;28;20205;-67
2021/08/03 01:36:41;;;;;;;2.33;2.13;;;11.30;99.90;;;;;;5055001;28;20185;-68
2021/08/03 01:39:08;;;;;;;2.42;2.22;;;11.30;99.90;;;;;;5054924;28;20185;-68
2021/08/03 01:41:35;;;;;;;8.68;1.90;;;11.30;99.90;;;;;;5054593;28;20193;-67
2021/08/03 01:44:02;;;;;;;1.88;1.77;;;11.30;99.90;;;;;;5053076;28;20584;-66
2021/08/03 01:46:29;;;;;;;2.00;1.90;;;11.20;99.90;;;;;;5054549;28;20534;-68
2021/08/03 01:48:59;;;;;;;1.90;1.80;;;11.10;99.90;;;;;;5054544;28;20185;-67
2021/08/03 01:51:26;;;;;;;2.35;2.03;;;11.20;99.90;;;;;;5054412;28;20189;-68
2021/08/03 01:53:54;;;;;;;2.20;2.03;;;11.20;99.90;;;;;;5054206;28;20209;-67
2021/08/03 01:56:22;;;;;;;2.60;1.90;;;11.30;99.90;;;;;;5054522;28;20599;-67
2021/08/03 01:58:49;;;;;;;1.95;1.75;;;11.30;99.90;;;;;;5054449;28;20166;-68
2021/08/03 02:01:15;;;;;;;2.40;2.20;;;11.30;99.90;;;;;;5054212;28;20243;-66
2021/08/03 02:03:42;;;;;;;2.25;2.05;;;11.30;99.90;;;;;;5054068;28;20166;-67
2021/08/03 02:06:08;;;;;;;7.30;2.85;;;11.30;99.90;;;;;;5054254;28;20213;-66
2021/08/03 02:08:35;;;;;;;1.77;1.67;;;11.30;99.90;;;;;;5054414;28;20209;-68
2021/08/03 02:11:03;;;;;;;3.33;2.65;;;11.20;99.90;;;;;;5054043;28;20515;-66
2021/08/03 02:13:30;;;;;;;1.60;1.50;;;11.20;99.90;;;;;;5053971;28;20202;-66
2021/08/03 02:15:56;;;;;;;2.17;1.70;;;11.20;99.90;;;;;;5053988;28;20178;-67
2021/08/03 02:18:21;;;;;;;3.22;2.45;;;11.20;99.90;;;;;;5054170;28;20178;-66
2021/08/03 02:20:47;;;;;;;7.90;2.00;;;11.20;99.90;;;;;;5053845;28;20196;-67
2021/08/03 02:23:14;;;;;;;2.23;2.00;;;11.20;99.90;;;;;;5053859;28;20569;-67
2021/08/03 02:25:41;;;;;;;2.03;1.80;;;11.20;99.90;;;;;;5054005;28;20170;-68
2021/08/03 02:28:07;;;;;;;2.90;2.05;;;11.20;99.90;;;;;;5054172;28;20232;-66
2021/08/03 02:30:33;;;;;;;2.30;2.10;;;11.20;99.90;;;;;;5053656;28;20200;-66
2021/08/03 02:33:14;;;;;;;2.50;2.33;;;11.20;99.90;;;;;;5053668;28;20611;-67
2021/08/03 02:36:11;;;;;;;2.20;2.00;;;11.20;99.90;;;;;;5053673;28;20177;-66
2021/08/03 02:38:39;;;;;;;2.72;2.53;;;11.20;99.90;;;;;;5052506;28;20257;-67
2021/08/03 02:41:06;;;;;;;2.35;2.15;;;11.20;99.90;;;;;;5053708;28;20192;-66
2021/08/03 02:43:33;;;;;;;2.08;1.98;;;11.10;99.90;;;;;;5053706;28;20192;-67
2021/08/03 02:46:02;;;;;;;2.05;1.95;;;11.20;99.90;;;;;;5053609;28;20560;-66
2021/08/03 02:48:29;;;;;;;1.88;1.73;;;11.10;99.90;;;;;;5053630;28;20166;-68
2021/08/03 02:50:56;;;;;;;1.90;1.80;;;11.20;99.90;;;;;;5053544;28;20766;-67
2021/08/03 02:53:47;;;;;;;3.30;2.25;;;11.10;99.90;;;;;;5053167;28;20296;-68
2021/08/03 02:56:17;;;;;;;1.52;1.42;;;11.20;99.90;;;;;;5053725;28;20166;-67
2021/08/03 02:59:04;;;;;;;2.67;2.45;;;11.10;99.90;;;;;;5053555;28;20535;-67
2021/08/03 03:01:31;;;;;;;2.40;1.55;;;11.20;99.90;;;;;;5053248;28;20660;-66
2021/08/03 03:04:16;;;;;;;2.47;2.20;;;11.10;99.90;;;;;;5053156;28;20636;-67
2021/08/03 03:06:47;;;;;;;3.05;1.85;;;11.20;99.90;;;;;;5053400;28;20174;-67
2021/08/03 03:09:14;;;;;;;2.22;2.00;;;11.20;99.90;;;;;;5053133;28;20190;-66
2021/08/03 03:11:40;;;;;;;2.00;1.75;;;11.30;99.90;;;;;;5053048;28;20190;-65
2021/08/03 03:14:08;;;;;;;2.10;2.00;;;11.30;99.90;;;;;;5053079;28;20557;-68
2021/08/03 03:16:38;;;;;;;2.35;2.15;;;11.40;99.90;;;;;;5053174;28;20162;-66
2021/08/03 03:19:05;;;;;;;2.50;2.30;;;11.40;99.90;;;;;;5053506;28;20643;-66
2021/08/03 03:21:33;;;;;;;4.30;2.70;;;11.50;99.90;;;;;;5053028;28;20277;-67
2021/08/03 03:23:59;;;;;;;2.85;2.50;;;11.50;99.90;;;;;;5052982;28;20668;-66
2021/08/03 03:26:28;;;;;;;2.20;2.05;;;11.50;99.90;;;;;;5053227;28;20182;-68
2021/08/03 03:28:56;;;;;;;2.72;1.85;;;11.40;99.90;;;;;;5053003;28;20169;-67
2021/08/03 03:31:25;;;;;;;2.33;2.10;;;11.40;99.90;;;;;;5052929;28;20215;-68
2021/08/03 03:33:52;;;;;;;2.33;2.13;;;11.30;99.90;;;;;;5052757;28;20575;-67
2021/08/03 03:36:24;;;;;;;2.22;2.03;;;11.30;99.90;;;;;;5053177;28;20573;-67
2021/08/03 03:38:51;;;;;;;2.40;2.20;;;11.40;99.90;;;;;;5053096;28;20166;-68
2021/08/03 03:41:17;;;;;;;2.67;2.47;;;11.40;99.90;;;;;;5052826;28;20272;-68
2021/08/03 03:43:42;;;;;;;2.30;2.10;;;11.50;99.90;;;;;;5052698;28;20265;-67
2021/08/03 03:46:15;;;;;;;2.47;2.27;;;11.60;99.90;;;;;;5053180;28;20415;-68
2021/08/03 03:48:48;;;;;;;2.13;1.92;;;11.60;99.90;;;;;;5055380;28;20561;-66
2021/08/03 03:51:19;;;;;;;2.10;1.80;;;11.70;99.90;;;;;;5056729;28;20193;-67
2021/08/03 03:54:17;;;;;;;2.78;2.55;;;11.70;99.90;;;;;;5055195;28;20594;-66
2021/08/03 03:57:02;;;;;;;2.45;2.25;;;11.70;99.90;;;;;;5044982;28;20251;-66
2021/08/03 03:59:27;;;;;;;2.50;2.05;;;11.70;99.90;;;;;;5056803;28;20576;-66
2021/08/03 04:01:57;;;;;;;2.47;2.27;;;11.70;99.90;;;;;;5056568;28;20170;-68
2021/08/03 04:04:24;;;;;;;1.93;1.83;;;11.70;99.90;;;;;;5056679;28;20170;-67
2021/08/03 04:06:51;;;;;;;3.20;2.08;;;11.70;99.90;;;;;;5056531;28;20816;-66
2021/08/03 04:09:23;;;;;;;1.70;1.60;;;11.90;99.90;;;;;;5056445;28;20233;-68
2021/08/03 04:11:51;;;;;;;2.33;2.17;;;11.90;99.90;;;;;;5056412;28;20220;-67
2021/08/03 04:14:22;;;;;;;2.20;2.05;;;12.00;99.90;;;;;;5056075;28;20659;-68
2021/08/03 04:16:49;;;;;;;2.95;2.65;;;12.00;99.90;;;;;;5056324;28;20224;-66
2021/08/03 04:19:15;;;;;;;2.25;2.05;;;12.00;99.90;;;;;;5056307;28;20181;-69
2021/08/03 04:21:42;;;;;;;2.30;2.10;;;12.10;99.90;;;;;;5056093;28;20182;-67
2021/08/03 04:24:09;;;;;;;3.35;3.05;;;12.10;99.90;;;;;;5056111;28;20170;-68
2021/08/03 04:26:36;;;;;;;5.10;3.35;;;12.20;99.90;;;;;;5056263;28;20182;-68
2021/08/03 04:29:03;;;;;;;3.03;2.73;;;12.20;99.90;;;;;;5056254;28;20174;-66
2021/08/03 04:31:28;;;;;;;2.20;2.07;;;12.20;99.90;;;;;;5055840;28;20531;-66
2021/08/03 04:33:54;;;;;;;2.93;2.63;;;12.20;99.90;;;;;;5054471;28;20562;-68
2021/08/03 04:36:20;;;;;;;3.40;3.20;;;12.20;99.90;;;;;;5056247;28;20166;-67
2021/08/03 04:38:45;;;;;;;7.63;2.37;;;12.20;99.90;;;;;;5055946;28;20271;-67
2021/08/03 04:41:11;;;;;;;2.90;2.20;;;12.20;99.90;;;;;;5055738;28;20236;-66
2021/08/03 04:43:37;;;;;;;2.53;1.90;;;12.20;99.90;;;;;;5055601;28;20174;-67
2021/08/03 04:46:02;;;;;;;3.03;2.83;;;12.40;99.90;;;;;;5055765;28;20178;-66
2021/08/03 04:48:28;;;;;;;2.90;2.37;;;12.40;99.90;;;;;;5055580;28;20593;-68
2021/08/03 04:50:53;;;;;;;2.43;2.23;;;12.50;99.90;;;;;;5055578;28;20240;-68
2021/08/03 04:53:19;;;;;;;2.63;2.43;;;12.60;99.90;;;;;;5055519;28;20756;-67
2021/08/03 04:55:45;;;;;;;4.47;2.23;;;12.60;99.90;;;;;;5055693;28;20636;-68
2021/08/03 04:58:10;;;;;;;2.77;2.53;;;12.60;99.90;;;;;;5055450;28;20220;-68
2021/08/03 05:00:36;;;;;;;5.30;2.77;;;12.60;99.90;;;;;;5054398;28;20237;-67
2021/08/03 05:03:02;;;;;;;2.83;2.63;;;12.50;99.90;;;;;;5055336;28;20175;-68
2021/08/03 05:05:27;;;;;;;2.17;1.97;;;12.40;99.90;;;;;;5055320;28;20628;-66
2021/08/03 05:08:00;;;;;;;4.47;3.07;;;12.60;99.90;;;;;;5055291;28;20170;-68
2021/08/03 05:10:29;;;;;;;3.30;3.07;;;12.80;99.90;;;;;;5053887;28;20687;-67
2021/08/03 05:12:55;;;;;;;1.83;1.73;;;12.90;99.90;;;;;;5053758;28;20531;-66
2021/08/03 05:15:21;;;;;;;2.67;2.47;;;13.10;99.90;;;;;;5055045;28;20484;-68
2021/08/03 05:17:47;;;;;;;2.80;2.60;;;13.20;99.90;;;;;;5055225;28;20779;-66
2021/08/03 05:20:13;;;;;;;2.03;1.93;;;13.20;99.90;;;;;;5055028;28;20448;-68
2021/08/03 05:22:39;;;;;;;1.87;1.77;;;13.30;99.90;;;;;;5055300;28;20389;-67
2021/08/03 05:25:05;;;;;;;2.40;2.13;;;13.40;99.90;;;;;;5054788;28;20419;-67
2021/08/03 05:27:31;;;;;;;2.07;1.97;;;13.50;99.90;;;;;;5054871;28;20499;-68
2021/08/03 05:29:57;;;;;;;5.90;2.63;;;13.60;99.90;;;;;;5054854;28;20417;-68
2021/08/03 05:32:22;;;;;;;3.77;3.37;;;13.60;99.90;;;;;;5054811;28;20477;-66
2021/08/03 05:34:48;;;;;;;3.00;2.80;;;13.70;99.90;;;;;;5054802;28;20173;-66
2021/08/03 05:37:14;;;;;;;4.10;3.53;;;13.80;99.90;;;;;;5054920;28;20169;-68
2021/08/03 05:39:39;;;;;;;3.60;2.80;;;14.00;99.90;;;;;;5054508;28;20193;-68
2021/08/03 05:42:06;;;;;;;3.27;2.97;;;14.20;99.90;;;;;;5054747;28;20170;-67
2021/08/03 05:44:32;;;;;;;2.67;2.43;;;14.50;99.90;;;;;;5054525;28;20265;-66
2021/08/03 05:46:59;;;;;;;2.90;2.70;;;14.70;99.90;;;;;;5054548;28;20408;-66
2021/08/03 05:49:25;;;;;;;2.50;2.30;;;14.80;99.90;;;;;;5054468;28;20417;-68
2021/08/03 05:51:50;;;;;;;2.77;2.50;;;14.90;99.90;;;;;;5054503;28;20762;-68
2021/08/03 05:54:16;;;;;;;4.13;2.30;;;15.00;99.90;;;;;;5054233;28;20459;-67
2021/08/03 05:56:42;;;;;;;3.43;2.53;;;15.10;99.90;;;;;;5054620;28;20174;-68
2021/08/03 05:59:08;;;;;;;4.60;3.23;;;15.10;99.90;;;;;;5054394;28;20193;-68
2021/08/03 06:01:34;;;;;;;3.40;3.10;;;15.20;99.90;;;;;;5054255;28;20186;-68
2021/08/03 06:04:00;;;;;;;3.17;2.93;;;15.30;99.90;;;;;;5054233;28;20405;-68
2021/08/03 06:06:29;;;;;;;2.90;2.33;;;15.40;99.90;;;;;;5054081;28;20453;-68
2021/08/03 06:08:56;;;;;;;3.40;3.07;;;15.60;99.90;;;;;;5054128;28;20188;-68
2021/08/03 06:11:26;;;;;;;2.33;2.13;;;15.90;99.90;;;;;;5054127;28;20431;-66
2021/08/03 06:13:55;;;;;;;2.67;2.27;;;16.30;99.90;;;;;;5053813;28;20550;-69
2021/08/03 06:16:22;;;;;;;3.70;2.50;;;16.60;99.90;;;;;;5054139;28;20476;-68
2021/08/03 06:18:49;;;;;;;2.87;2.63;;;16.90;99.60;;;;;;5054157;28;20408;-66
2021/08/03 06:21:16;;;;;;;2.60;2.40;;;17.20;99.20;;;;;;5054081;28;20428;-67
2021/08/03 06:23:46;;;;;;;1.90;1.80;;;17.50;98.20;;;;;;5053809;28;20806;-66
2021/08/03 06:26:13;;;;;;;3.00;2.80;;;17.80;97.00;;;;;;5054133;28;20458;-67
2021/08/03 06:28:44;;;;;;;2.70;2.50;;;18.20;96.60;;;;;;5054015;28;20411;-69
2021/08/03 06:31:11;;;;;;;2.20;2.00;;;18.20;96.90;;;;;;5053891;28;20507;-67
2021/08/03 06:33:37;;;;;;;1.43;1.30;;;18.20;97.30;;;;;;5053777;28;20452;-67
2021/08/03 06:36:02;;;;;;;2.00;1.90;;;18.30;97.70;;;;;;5054015;28;20894;-67
2021/08/03 06:38:28;;;;;;;1.80;1.70;;;18.30;97.10;;;;;;5053958;28;20541;-67
2021/08/03 06:41:00;;;;;;;2.33;1.97;;;18.30;96.90;;;;;;5053863;28;20190;-66
2021/08/03 06:43:29;;;;;;;2.20;2.00;;;18.30;96.50;;;;;;5053733;28;20187;-67
2021/08/03 06:46:07;;;;;;;2.20;2.00;;;18.20;97.20;;;;;;5053646;28;20417;-68
2021/08/03 06:49:01;;;;;;;2.17;1.97;;;18.00;97.80;;;;;;5053597;28;20412;-67
2021/08/03 06:51:32;;;;;;;3.73;2.00;;;17.80;98.30;;;;;;5052220;28;20442;-68
2021/08/03 06:54:03;;;;;;;2.33;2.20;;;17.70;98.70;;;;;;5053526;28;20998;-67
2021/08/03 06:56:32;;;;;;;2.80;2.60;;;17.60;97.90;;;;;;5053714;28;20480;-66
2021/08/03 06:59:04;;;;;;;3.17;2.40;;;17.60;98.20;;;;;;5053647;28;20414;-66
2021/08/03 07:01:46;;;;;;;2.30;2.03;;;17.70;98.00;;;;;;5052172;28;20811;-68
2021/08/03 07:04:19;;;;;;;2.00;1.90;;;17.80;98.10;;;;;;5051885;28;20463;-67
2021/08/03 07:06:55;;;;;;;2.40;1.70;;;18.00;98.60;;;;;;5053329;28;20405;-69
2021/08/03 07:09:25;;;;;;;4.53;2.03;;;18.40;98.50;;;;;;5053248;28;20553;-67
2021/08/03 07:11:55;;;;;;;3.40;2.00;;;18.90;98.40;;;;;;5053325;28;20416;-68
2021/08/03 07:14:25;;;;;;;1.53;1.43;;;19.30;96.90;;;;;;5053309;28;20957;-68
2021/08/03 07:16:53;;;;;;;1.37;1.27;;;19.70;95.80;;;;;;5053220;28;20398;-69
2021/08/03 07:19:21;;;;;;;3.73;1.93;;;20.00;95.70;;;;;;5053489;28;20473;-67
2021/08/03 07:21:47;;;;;;;1.60;1.50;;;20.30;94.90;;;;;;5053159;28;20921;-67
2021/08/03 07:24:13;;;;;;;2.40;1.83;;;20.30;94.10;;;;;;5056562;28;20429;-67
2021/08/03 07:26:39;;;;;;;2.80;1.60;;;20.30;95.00;;;;;;5057404;28;20413;-67
2021/08/03 07:29:05;;;;;;;1.60;1.50;;;20.20;94.40;;;;;;5057375;28;20180;-67
2021/08/03 07:31:31;;;;;;;2.10;1.93;;;19.90;94.80;;;;;;5057285;28;20428;-67
2021/08/03 07:33:57;;;;;;;1.60;1.40;;;20.00;95.70;;;;;;5056854;28;20687;-67
2021/08/03 07:36:23;;;;;;;1.70;1.60;;;20.00;95.90;;;;;;5057010;28;20411;-67
2021/08/03 07:38:54;;;;;;;2.00;1.90;;;20.00;95.40;;;;;;5057312;28;20412;-67
2021/08/03 07:41:20;;;;;;;1.53;1.43;;;20.00;95.80;;;;;;5056971;28;20435;-68
2021/08/03 07:43:46;;;;;;;1.70;1.60;;;19.80;95.30;;;;;;5056904;28;20407;-67
2021/08/03 07:46:12;;;;;;;2.23;2.03;;;19.50;95.20;;;;;;5056985;28;20437;-67
2021/08/03 07:48:37;;;;;;;2.60;2.40;;;19.30;95.20;;;;;;5057198;28;20181;-67
2021/08/03 07:51:05;;;;;;;2.13;1.50;;;19.30;95.80;;;;;;5056870;28;20466;-68
2021/08/03 07:53:31;;;;;;;1.73;1.63;;;19.40;96.40;;;;;;5056710;28;20659;-69
2021/08/03 07:55:56;;;;;;;2.33;2.17;;;19.50;95.60;;;;;;5056901;28;20412;-67
2021/08/03 07:58:22;;;;;;;1.67;1.57;;;19.30;95.80;;;;;;5056834;28;20174;-68
2021/08/03 08:00:48;;;;;;;1.63;1.53;;;19.20;95.80;;;;;;5055800;28;20279;-66
2021/08/03 08:03:13;;;;;;;2.43;2.23;;;19.10;97.30;;;;;;5056477;28;20199;-69
2021/08/03 08:05:39;;;;;;;1.93;1.73;;;18.80;97.30;;;;;;5056640;28;20674;-66
2021/08/03 08:08:06;;;;;;;1.63;1.53;;;18.60;96.30;;;;;;5056319;28;20183;-67
2021/08/03 08:10:31;;;;;;;1.63;1.53;;;18.80;96.60;;;;;;5056388;28;20195;-68
2021/08/03 08:12:57;;;;;;;1.80;1.50;;;18.90;97.20;;;;;;5056485;28;20506;-66
2021/08/03 08:15:23;;;;;;;1.20;1.10;;;19.00;97.20;;;;;;5056306;28;20277;-67
2021/08/03 08:17:48;;;;;;;1.70;1.60;;;19.20;95.80;;;;;;5056403;28;20318;-67
2021/08/03 08:20:14;;;;;;;1.73;1.20;;;19.20;94.80;;;;;;5056173;28;20685;-69
2021/08/03 08:22:42;;;;;;;1.57;1.33;;;19.30;95.30;;;;;;5056078;28;20172;-69
2021/08/03 08:25:11;;;;;;;1.20;1.10;;;19.30;95.20;;;;;;5056028;28;20288;-66
2021/08/03 08:27:41;;;;;;;1.20;1.10;;;19.20;94.90;;;;;;5056383;28;20523;-67
2021/08/03 08:30:08;;;;;;;2.07;1.70;;;19.20;95.50;;;;;;5056181;28;20912;-67
2021/08/03 08:32:35;;;;;;;1.77;1.67;;;19.20;97.10;;;;;;5056110;28;20458;-67
2021/08/03 08:35:02;;;;;;;2.30;1.67;;;19.30;95.30;;;;;;5054419;28;20442;-68
2021/08/03 08:37:29;;;;;;;1.60;1.50;;;19.60;95.30;;;;;;5055963;28;20418;-68
2021/08/03 08:39:56;;;;;;;1.60;1.47;;;19.90;94.30;;;;;;5054511;28;20458;-68
2021/08/03 08:42:24;;;;;;;0.97;0.97;;;20.00;94.10;;;;;;5055665;28;20423;-67
2021/08/03 08:44:49;;;;;;;1.60;1.43;;;20.20;94.70;;;;;;5055638;28;20503;-68
2021/08/03 08:47:17;;;;;;;2.93;1.47;;;20.50;93.30;;;;;;5055601;28;20514;-66
2021/08/03 08:49:47;;;;;;;1.93;1.40;;;20.70;93.30;;;;;;5055592;28;20189;-67
2021/08/03 08:52:14;;;;;;;2.83;1.63;;;20.80;93.00;;;;;;5055568;28;20863;-66
2021/08/03 08:54:40;;;;;;;1.30;1.20;;;20.70;92.40;;;;;;5055577;28;20407;-67
2021/08/03 08:57:06;;;;;;;3.00;1.20;;;20.70;93.40;;;;;;5055765;28;20898;-68
2021/08/03 08:59:32;;;;;;;1.33;1.23;;;20.60;92.00;;;;;;5055610;28;20536;-66
2021/08/03 09:01:58;;;;;;;1.50;1.40;;;20.60;91.40;;;;;;5055654;28;20408;-67
2021/08/03 09:04:24;;;;;;;2.23;1.50;;;20.80;91.30;;;;;;5055416;28;20184;-66
2021/08/03 09:07:03;;;;;;;1.50;1.40;;;21.00;92.40;;;;;;5055416;28;20408;-69
2021/08/03 09:09:39;;;;;;;1.40;1.30;;;21.30;91.10;;;;;;5055382;28;20990;-67
2021/08/03 09:12:05;;;;;;;1.30;1.20;;;21.80;90.40;;;;;;5055274;28;20792;-67
2021/08/03 09:14:42;;;;;;;1.53;1.43;;;22.40;88.70;;;;;;5055001;28;20453;-67
2021/08/03 09:17:08;;;;;;;1.00;0.90;;;23.00;90.00;;;;;;5055264;28;20169;-67
2021/08/03 09:19:39;;;;;;;1.67;1.57;;;23.20;88.90;;;;;;5055042;28;20460;-68
2021/08/03 09:22:29;;;;;;;2.33;1.50;;;23.10;86.80;;;;;;5055165;28;20404;-66
2021/08/03 09:25:12;;;;;;;4.93;2.03;;;22.90;87.80;;;;;;5053682;28;20476;-67
2021/08/03 09:27:44;;;;;;;1.40;1.30;;;22.70;86.70;;;;;;5055075;28;20769;-67
2021/08/03 09:30:28;;;;;;;1.50;1.40;;;22.60;86.20;;;;;;5055193;28;20516;-67
2021/08/03 09:32:54;;;;;;;1.43;1.30;;;22.80;86.50;;;;;;5054825;28;20412;-69
2021/08/03 09:35:22;;;;;;;2.70;1.37;;;23.00;85.30;;;;;;5054732;28;20428;-69
2021/08/03 09:37:49;;;;;;;1.97;1.43;;;23.20;87.10;;;;;;5054897;28;20416;-67
2021/08/03 09:40:20;;;;;;;1.27;1.17;;;23.60;83.40;;;;;;5053840;28;20519;-69
2021/08/03 09:43:13;;;;;;;2.37;1.40;;;23.80;80.40;;;;;;5053351;28;20496;-69
2021/08/03 09:45:44;;;;;;;2.00;1.00;;;24.00;81.70;;;;;;5053569;28;20397;-68
2021/08/03 09:48:16;;;;;;;2.00;1.70;;;24.10;84.60;;;;;;5054665;28;20380;-66
2021/08/03 09:51:07;;;;;;;1.23;1.13;;;24.00;83.30;;;;;;5053849;28;20802;-68
2021/08/03 09:53:43;;;;;;;1.40;1.30;;;23.70;80.90;;;;;;5054411;28;20483;-68
2021/08/03 09:56:12;;;;;;;1.57;1.13;;;23.60;82.20;;;;;;5053593;28;20418;-67
2021/08/03 09:58:51;;;;;;;1.33;1.23;;;23.60;81.40;;;;;;5054369;28;20790;-68
2021/08/03 10:01:38;;;;;;;1.20;1.10;;;23.70;80.20;;;;;;5054098;28;20430;-67
2021/08/03 10:04:10;;;;;;;1.00;0.90;;;24.80;78.50;;;;;;5054074;28;20419;-69
2021/08/03 10:06:37;;;;;;;1.30;1.20;;;26.00;79.30;;;;;;5054224;28;20379;-68
2021/08/03 10:09:05;;;;;;;0.80;0.80;;;27.10;73.10;;;;;;5054254;28;20483;-69
2021/08/03 10:11:31;;;;;;;2.30;1.10;;;27.70;70.60;;;;;;5054092;28;20439;-68
2021/08/03 10:13:57;;;;;;;1.10;1.00;;;28.00;67.00;;;;;;5052659;28;21008;-67
2021/08/03 10:16:24;;;;;;;1.00;1.00;;;27.40;67.40;;;;;;5054268;28;20415;-68
2021/08/03 10:18:52;;;;;;;1.50;1.40;;;26.40;69.80;;;;;;5054127;28;20405;-69
2021/08/03 10:21:51;;;;;;;1.00;1.00;;;25.20;70.80;;;;;;5053016;28;20428;-69
2021/08/03 10:24:25;;;;;;;1.00;1.00;;;24.30;75.00;;;;;;5040302;28;20463;-69
2021/08/03 10:27:09;;;;;;;1.10;1.00;;;23.40;77.50;;;;;;5052941;28;20876;-67
2021/08/03 10:29:57;;;;;;;5.77;2.10;;;22.50;79.40;;;;;;5053769;28;20779;-69
2021/08/03 10:32:52;;;;;;;1.30;1.20;;;21.70;81.90;;;;;;5053866;28;20389;-68
2021/08/03 10:35:19;;;;;;;1.57;1.47;;;21.00;87.20;;;;;;5053777;28;20466;-67
2021/08/03 10:38:00;;;;;;;3.20;1.10;;;20.50;90.70;;;;;;5053637;28;20415;-68
2021/08/03 10:41:02;;;;;;;1.43;1.33;;;20.00;90.60;;;;;;5052311;28;20952;-67
2021/08/03 10:43:34;;;;;;;0.93;0.93;;;19.20;91.60;;;;;;5021783;28;20432;-66
2021/08/03 10:46:08;;;;;;;3.23;1.43;;;18.50;94.20;;;;;;5053967;28;20413;-66
2021/08/03 10:48:40;;;;;;;1.93;1.30;;;18.20;95.50;;;;;;5053563;28;20423;-67
2021/08/03 10:51:15;;;;;;;2.50;1.20;;;17.90;96.40;;;;;;5053416;28;20514;-68
2021/08/03 10:54:04;;;;;;;1.30;1.20;;;17.70;98.30;;;;;;5053321;28;20979;-68
2021/08/03 10:57:01;;;;;;;1.40;1.40;;;17.50;98.60;;;;;;5053381;28;20405;-68
2021/08/03 10:59:36;;;;;;;3.20;1.33;;;17.50;99.30;;;;;;5053170;28;20503;-66
2021/08/03 11:02:07;;;;;;;1.13;1.03;;;17.60;99.90;;;;;;5053430;28;20400;-68
2021/08/03 11:04:41;;;;;;;1.33;1.13;;;17.70;99.90;;;;;;5053182;28;20752;-66
2021/08/03 11:07:32;;;;;;;1.20;1.10;;;18.00;99.20;;;;;;5053439;28;20880;-67
2021/08/03 11:10:09;;;;;;;0.93;0.93;;;18.20;99.10;;;;;;5053241;28;20529;-67
2021/08/03 11:12:37;;;;;;;1.33;1.23;;;18.40;99.90;;;;;;5053098;28;20457;-68
2021/08/03 11:15:26;;;;;;;1.20;1.10;;;18.50;99.80;;;;;;5052960;28;20921;-68
2021/08/03 11:17:55;;;;;;;1.13;1.00;;;18.40;99.90;;;;;;5051908;28;20421;-68
2021/08/03 11:20:36;;;;;;;1.53;1.43;;;18.60;98.80;;;;;;5053093;28;20427;-68
2021/08/03 11:23:10;;;;;;;1.30;1.20;;;18.60;97.30;;;;;;5053148;28;20410;-68
2021/08/03 11:25:37;;;;;;;2.77;0.93;;;18.70;97.80;;;;;;5053409;28;21525;-68
2021/08/03 11:28:17;;;;;;;1.30;1.20;;;18.70;96.80;;;;;;5053474;28;20413;-68
2021/08/03 11:30:46;;;;;;;1.00;1.00;;;18.80;97.10;;;;;;5053005;28;20431;-68
2021/08/03 11:33:12;;;;;;;1.27;1.17;;;18.90;97.30;;;;;;5052992;28;20541;-66
2021/08/03 11:35:38;;;;;;;1.30;1.20;;;18.60;97.10;;;;;;5053280;28;20760;-66
2021/08/03 11:38:06;;;;;;;1.30;0.87;;;18.70;97.00;;;;;;5053195;28;20425;-67
2021/08/03 11:40:32;;;;;;;1.10;1.00;;;18.80;97.00;;;;;;5052902;28;20424;-67
2021/08/03 11:42:59;;;;;;;1.30;1.20;;;18.70;97.10;;;;;;5053338;28;20405;-67
2021/08/03 11:45:26;;;;;;;1.37;1.27;;;18.50;97.60;;;;;;5052888;28;20405;-68
2021/08/03 11:47:56;;;;;;;1.80;0.90;;;18.40;98.20;;;;;;5053005;28;20416;-68
2021/08/03 11:50:30;;;;;;;1.13;0.93;;;18.50;98.40;;;;;;5052956;28;20431;-67
2021/08/03 11:53:11;;;;;;;1.20;1.10;;;18.40;97.60;;;;;;5052780;28;20462;-68
2021/08/03 11:55:43;;;;;;;1.63;1.50;;;18.50;99.30;;;;;;5052980;28;20408;-67
2021/08/03 11:58:10;;;;;;;1.20;1.10;;;18.40;98.00;;;;;;5052976;28;20480;-68
2021/08/03 12:00:37;;;;;;;1.00;1.00;;;18.50;98.40;;;;;;5052855;28;20428;-66
2021/08/03 12:03:03;;;;;;;1.40;1.30;;;18.50;99.20;;;;;;5052740;28;20429;-66
2021/08/03 12:05:30;;;;;;;2.30;1.30;;;18.40;97.50;;;;;;5052528;28;20488;-68
2021/08/03 12:08:12;;;;;;;1.47;1.07;;;18.40;97.30;;;;;;5052591;28;20413;-68
2021/08/03 12:10:43;;;;;;;1.23;0.93;;;18.20;97.80;;;;;;5056558;28;20580;-67
2021/08/03 12:13:25;;;;;;;0.90;0.90;;;18.30;98.50;;;;;;5056312;28;20456;-68
2021/08/03 12:15:52;;;;;;;1.23;0.90;;;18.30;97.70;;;;;;5056357;28;20877;-66
2021/08/03 12:18:19;;;;;;;1.00;0.90;;;18.40;98.40;;;;;;5056282;28;20449;-66
2021/08/03 12:20:50;;;;;;;1.90;1.13;;;18.50;98.50;;;;;;5056180;28;20856;-68
2021/08/03 12:23:29;;;;;;;0.70;0.70;;;18.70;98.90;;;;;;5056238;28;20499;-69
2021/08/03 12:25:59;;;;;;;1.27;1.13;;;18.90;98.90;;;;;;5056370;28;20447;-67
2021/08/03 12:28:26;;;;;;;0.97;0.87;;;19.20;97.70;;;;;;5056164;28;20495;-67
2021/08/03 12:30:52;;;;;;;1.10;1.00;;;19.30;97.50;;;;;;5056013;28;20433;-68
2021/08/03 12:33:28;;;;;;;1.20;1.10;;;19.20;97.10;;;;;;5056133;28;20460;-67
2021/08/03 12:36:26;;;;;;;1.23;1.03;;;19.20;96.90;;;;;;5056188;28;20433;-67
2021/08/03 12:39:18;;;;;;;1.47;1.37;;;19.10;97.90;;;;;;5022623;28;20417;-68
2021/08/03 12:42:05;;;;;;;1.33;1.23;;;19.10;97.60;;;;;;5055849;28;20422;-66
2021/08/03 12:44:36;;;;;;;2.40;1.33;;;19.10;96.80;;;;;;5045021;28;20427;-68
2021/08/03 12:47:11;;;;;;;1.73;1.60;;;19.10;96.00;;;;;;5055752;28;20409;-67
2021/08/03 12:49:39;;;;;;;2.23;1.50;;;19.20;97.60;;;;;;5055705;28;20417;-67
2021/08/03 12:52:09;;;;;;;1.90;1.60;;;19.30;98.20;;;;;;5055944;28;20758;-67
2021/08/03 12:54:35;;;;;;;2.40;1.57;;;19.60;98.50;;;;;;5055650;28;20494;-69
2021/08/03 12:57:03;;;;;;;1.03;1.03;;;20.10;96.00;;;;;;5055838;28;20453;-69
2021/08/03 12:59:34;;;;;;;1.40;1.30;;;20.20;94.30;;;;;;5055548;28;20435;-68
2021/08/03 13:02:00;;;;;;;1.57;1.47;;;20.20;96.20;;;;;;5055535;28;20502;-66
2021/08/03 13:04:26;;;;;;;1.50;1.40;;;20.20;96.20;;;;;;5055272;28;20561;-68